createdAt,value
2023-01-30T00:01:19.188Z,13.57
2023-01-30T00:03:46.363Z,7.88
2023-01-30T00:06:13.156Z,14.32
2023-01-30T00:08:39.958Z,12.45
2023-01-30T00:11:11.029Z,12.05
2023-01-30T00:13:38.996Z,7.70
2023-01-30T00:16:06.064Z,12.90
2023-01-30T00:18:32.972Z,9.90
2023-01-30T00:21:01.372Z,11.23
2023-01-30T00:23:29.155Z,11.85
2023-01-30T00:25:56.426Z,11.85
2023-01-30T00:28:23.548Z,12.35
2023-01-30T00:30:51.936Z,11.90
2023-01-30T00:33:19.974Z,11.02
2023-01-30T00:35:48.610Z,6.72
2023-01-30T00:38:16.258Z,8.27
2023-01-30T00:40:43.224Z,11.93
2023-01-30T00:43:34.160Z,11.27
2023-01-30T00:46:21.710Z,12.15
2023-01-30T00:48:48.435Z,9.27
2023-01-30T00:51:15.111Z,12.02
2023-01-30T00:53:41.684Z,8.10
2023-01-30T00:56:08.299Z,7.57
2023-01-30T00:58:35.203Z,8.68
2023-01-30T01:01:02.808Z,11.80
2023-01-30T01:03:29.445Z,12.02
2023-01-30T01:05:55.967Z,10.30
2023-01-30T01:08:22.809Z,7.85
2023-01-30T01:10:49.645Z,10.65
2023-01-30T01:13:16.197Z,11.27
2023-01-30T01:15:42.750Z,10.43
2023-01-30T01:18:09.390Z,8.05
2023-01-30T01:20:36.037Z,9.63
2023-01-30T01:23:02.813Z,9.73
2023-01-30T01:25:29.435Z,14.25
2023-01-30T01:27:56.189Z,8.68
2023-01-30T01:30:22.889Z,17.35
2023-01-30T01:32:49.661Z,14.07
2023-01-30T01:35:16.479Z,4.30
2023-01-30T01:37:43.364Z,9.85
2023-01-30T01:40:35.737Z,14.77
2023-01-30T01:43:02.962Z,8.82
2023-01-30T01:45:31.507Z,13.07
2023-01-30T01:48:08.273Z,8.82
2023-01-30T01:50:49.818Z,10.50
2023-01-30T01:53:18.934Z,4.97
2023-01-30T01:55:49.708Z,9.05
2023-01-30T01:58:29.462Z,9.48
2023-01-30T02:00:58.771Z,7.57
2023-01-30T02:03:28.686Z,11.35
2023-01-30T02:05:58.451Z,7.30
2023-01-30T02:08:31.691Z,16.00
2023-01-30T02:11:26.168Z,5.93
2023-01-30T02:13:53.438Z,10.45
2023-01-30T02:16:21.323Z,5.20
2023-01-30T02:18:48.547Z,13.43
2023-01-30T02:21:33.854Z,10.57
2023-01-30T02:24:23.807Z,5.88
2023-01-30T02:27:35.328Z,11.75
2023-01-30T02:30:23.092Z,12.35
2023-01-30T02:32:52.699Z,9.25
2023-01-30T02:35:31.958Z,10.43
2023-01-30T02:38:11.091Z,13.25
2023-01-30T02:41:02.019Z,11.52
2023-01-30T02:43:44.510Z,8.57
2023-01-30T02:46:48.699Z,15.27
2023-01-30T02:49:29.467Z,9.20
2023-01-30T02:52:00.124Z,9.75
2023-01-30T02:54:26.889Z,7.63
2023-01-30T02:56:57.441Z,9.23
2023-01-30T02:59:30.980Z,14.38
2023-01-30T03:02:22.501Z,10.32
2023-01-30T03:05:06.940Z,4.45
2023-01-30T03:07:50.509Z,7.85
2023-01-30T03:10:43.931Z,12.23
2023-01-30T03:13:33.823Z,9.05
2023-01-30T03:16:12.107Z,2.47
2023-01-30T03:18:44.858Z,11.23
2023-01-30T03:21:14.882Z,7.70
2023-01-30T03:23:41.658Z,13.50
2023-01-30T03:26:15.008Z,7.57
2023-01-30T03:28:42.404Z,16.73
2023-01-30T03:31:09.845Z,7.10
2023-01-30T03:33:37.043Z,9.93
2023-01-30T03:36:03.780Z,8.50
2023-01-30T03:38:30.723Z,11.43
2023-01-30T03:40:57.251Z,8.38
2023-01-30T03:43:23.986Z,7.72
2023-01-30T03:45:50.543Z,7.25
2023-01-30T03:48:17.384Z,6.97
2023-01-30T03:50:43.950Z,11.15
2023-01-30T03:53:10.992Z,6.38
2023-01-30T03:55:37.575Z,12.68
2023-01-30T03:58:04.156Z,4.55
2023-01-30T04:00:33.074Z,8.13
2023-01-30T04:03:00.672Z,7.50
2023-01-30T04:05:28.231Z,9.63
2023-01-30T04:08:01.651Z,9.77
2023-01-30T04:10:28.286Z,6.13
2023-01-30T04:12:55.106Z,6.82
2023-01-30T04:15:22.559Z,11.32
2023-01-30T04:18:04.688Z,17.50
2023-01-30T04:20:45.492Z,17.45
2023-01-30T04:23:12.669Z,11.13
2023-01-30T04:25:39.937Z,8.48
2023-01-30T04:28:09.077Z,7.00
2023-01-30T04:30:37.867Z,9.85
2023-01-30T04:33:23.406Z,9.88
2023-01-30T04:35:58.571Z,11.63
2023-01-30T04:38:27.105Z,7.05
2023-01-30T04:40:55.563Z,6.00
2023-01-30T04:43:24.383Z,9.25
2023-01-30T04:45:52.115Z,6.82
2023-01-30T04:48:20.460Z,8.00
2023-01-30T04:50:49.756Z,9.93
2023-01-30T04:53:17.959Z,10.52
2023-01-30T04:55:44.528Z,8.05
2023-01-30T04:58:11.178Z,11.38
2023-01-30T05:00:38.213Z,7.90
2023-01-30T05:03:06.449Z,17.20
2023-01-30T05:05:34.317Z,9.75
2023-01-30T05:08:01.583Z,9.90
2023-01-30T05:10:28.405Z,8.35
2023-01-30T05:12:55.064Z,6.28
2023-01-30T05:15:21.636Z,9.82
2023-01-30T05:17:48.211Z,11.10
2023-01-30T05:20:14.754Z,7.05
2023-01-30T05:22:41.264Z,8.93
2023-01-30T05:25:08.426Z,9.63
2023-01-30T05:27:35.407Z,9.57
2023-01-30T05:30:02.129Z,19.48
2023-01-30T05:32:31.066Z,8.35
2023-01-30T05:34:57.853Z,9.80
2023-01-30T05:37:24.666Z,7.10
2023-01-30T05:39:51.410Z,6.85
2023-01-30T05:42:18.022Z,11.23
2023-01-30T05:44:44.630Z,12.18
2023-01-30T05:47:11.213Z,6.32
2023-01-30T05:49:37.758Z,8.57
2023-01-30T05:52:04.464Z,4.75
2023-01-30T05:54:31.193Z,11.50
2023-01-30T05:56:57.737Z,5.15
2023-01-30T05:59:24.388Z,7.82
2023-01-30T06:01:51.011Z,5.35
2023-01-30T06:04:17.589Z,12.68
2023-01-30T06:06:44.115Z,7.13
2023-01-30T06:09:10.832Z,3.80
2023-01-30T06:11:37.441Z,5.63
2023-01-30T06:14:03.978Z,11.45
2023-01-30T06:16:30.679Z,6.45
2023-01-30T06:18:57.343Z,6.47
2023-01-30T06:21:23.946Z,8.88
2023-01-30T06:23:50.559Z,5.45
2023-01-30T06:26:17.277Z,9.27
2023-01-30T06:28:44.246Z,5.57
2023-01-30T06:31:11.554Z,6.32
2023-01-30T06:33:38.054Z,7.30
2023-01-30T06:36:04.797Z,6.53
2023-01-30T06:38:31.353Z,4.20
2023-01-30T06:40:57.892Z,4.75
2023-01-30T06:43:24.446Z,6.53
2023-01-30T06:45:51.046Z,3.17
2023-01-30T06:48:17.611Z,4.95
2023-01-30T06:50:46.284Z,6.95
2023-01-30T06:53:12.817Z,13.27
2023-01-30T06:55:39.321Z,5.63
2023-01-30T06:58:08.422Z,10.23
2023-01-30T07:00:35.667Z,6.10
2023-01-30T07:03:02.541Z,4.53
2023-01-30T07:05:30.407Z,4.78
2023-01-30T07:07:57.081Z,11.57
2023-01-30T07:10:24.061Z,11.00
2023-01-30T07:12:50.595Z,9.77
2023-01-30T07:15:17.636Z,6.38
2023-01-30T07:17:44.373Z,6.13
2023-01-30T07:20:11.773Z,6.63
2023-01-30T07:22:38.315Z,11.73
2023-01-30T07:25:05.726Z,6.22
2023-01-30T07:27:32.599Z,5.43
2023-01-30T07:29:59.243Z,6.95
2023-01-30T07:32:26.168Z,11.48
2023-01-30T07:34:53.096Z,10.10
2023-01-30T07:37:19.666Z,12.68
2023-01-30T07:39:46.219Z,8.48
2023-01-30T07:42:12.875Z,4.95
2023-01-30T07:44:40.311Z,7.75
2023-01-30T07:47:07.082Z,5.78
2023-01-30T07:49:33.634Z,11.38
2023-01-30T07:52:00.206Z,7.90
2023-01-30T07:54:26.792Z,6.80
2023-01-30T07:56:53.489Z,8.68
2023-01-30T07:59:20.046Z,7.22
2023-01-30T08:01:46.612Z,7.85
2023-01-30T08:04:13.233Z,4.80
2023-01-30T08:06:39.897Z,13.35
2023-01-30T08:09:07.243Z,8.50
2023-01-30T08:11:34.814Z,7.45
2023-01-30T08:14:01.617Z,6.07
2023-01-30T08:16:28.275Z,15.57
2023-01-30T08:18:55.171Z,10.23
2023-01-30T08:21:21.833Z,18.73
2023-01-30T08:23:48.481Z,6.95
2023-01-30T08:26:15.261Z,14.07
2023-01-30T08:28:42.631Z,11.10
2023-01-30T08:31:11.320Z,16.88
2023-01-30T08:33:38.199Z,18.83
2023-01-30T08:36:05.248Z,14.63
2023-01-30T08:38:31.779Z,14.00
2023-01-30T08:40:59.399Z,14.77
2023-01-30T08:43:26.001Z,13.38
2023-01-30T08:45:56.842Z,17.27
2023-01-30T08:48:23.702Z,16.85
2023-01-30T08:50:59.843Z,16.58
2023-01-30T08:53:26.471Z,18.77
2023-01-30T08:55:53.780Z,18.60
2023-01-30T08:58:21.574Z,16.27
2023-01-30T09:00:49.550Z,16.77
2023-01-30T09:05:43.050Z,9.60
2023-01-30T09:08:09.891Z,14.00
2023-01-30T09:10:36.647Z,15.52
2023-01-30T09:13:05.261Z,20.58
2023-01-30T09:15:32.806Z,16.10
2023-01-30T09:17:59.426Z,15.52
2023-01-30T09:20:26.429Z,13.63
2023-01-30T09:22:52.980Z,21.83
2023-01-30T09:25:19.698Z,15.50
2023-01-30T09:27:48.908Z,17.15
2023-01-30T09:30:15.792Z,19.67
2023-01-30T09:32:42.667Z,15.85
2023-01-30T09:35:09.528Z,17.38
2023-01-30T09:37:36.133Z,17.52
2023-01-30T09:40:03.014Z,16.40
2023-01-30T09:42:37.779Z,17.92
2023-01-30T09:45:10.809Z,20.20
2023-01-30T09:47:49.444Z,19.63
2023-01-30T09:50:34.248Z,29.38
2023-01-30T09:53:38.222Z,23.92
2023-01-30T09:56:05.727Z,23.65
2023-01-30T09:59:00.909Z,23.45
2023-01-30T10:01:51.251Z,25.17
2023-01-30T10:04:59.001Z,24.40
2023-01-30T10:07:33.607Z,22.63
2023-01-30T10:10:10.265Z,25.35
2023-01-30T10:12:54.359Z,20.70
2023-01-30T10:15:53.114Z,27.30
2023-01-30T10:18:51.053Z,22.92
2023-01-30T10:24:14.719Z,21.25
2023-01-30T10:26:42.635Z,26.02
2023-01-30T10:29:18.287Z,21.77
2023-01-30T10:31:58.566Z,24.85
2023-01-30T10:34:33.899Z,25.05
2023-01-30T10:37:15.391Z,23.20
2023-01-30T10:39:55.351Z,26.92
2023-01-30T10:42:43.925Z,18.88
2023-01-30T10:45:15.698Z,24.48
2023-01-30T10:48:00.163Z,25.58
2023-01-30T10:50:36.814Z,20.70
2023-01-30T10:53:11.121Z,23.65
2023-01-30T10:55:46.255Z,17.60
2023-01-30T10:58:20.350Z,21.45
2023-01-30T11:01:10.390Z,25.05
2023-01-30T11:04:02.929Z,24.25
2023-01-30T11:06:31.984Z,22.88
2023-01-30T11:08:58.605Z,21.65
2023-01-30T11:11:42.821Z,24.15
2023-01-30T11:14:11.377Z,20.77
2023-01-30T11:16:46.572Z,23.77
2023-01-30T11:19:20.192Z,22.85
2023-01-30T11:21:53.598Z,22.65
2023-01-30T11:24:23.873Z,24.15
2023-01-30T11:26:52.342Z,19.63
2023-01-30T11:29:33.485Z,21.02
2023-01-30T11:32:06.417Z,26.20
2023-01-30T11:34:33.249Z,20.65
2023-01-30T11:37:30.517Z,24.35
2023-01-30T11:39:57.209Z,24.23
2023-01-30T11:42:44.567Z,21.98
2023-01-30T11:45:17.690Z,21.15
2023-01-30T11:48:02.689Z,18.33
2023-01-30T11:50:42.765Z,24.75
2023-01-30T11:53:19.636Z,24.42
2023-01-30T11:55:56.658Z,25.08
2023-01-30T11:58:33.928Z,20.73
2023-01-30T12:01:01.912Z,23.02
2023-01-30T12:03:30.060Z,23.10
2023-01-30T12:05:58.831Z,21.40
2023-01-30T12:08:41.954Z,20.50
2023-01-30T12:11:42.100Z,22.27
2023-01-30T12:14:26.489Z,20.10
2023-01-30T12:17:02.480Z,22.17
2023-01-30T12:20:06.053Z,22.35
2023-01-30T12:22:43.027Z,20.40
2023-01-30T12:25:20.228Z,21.23
2023-01-30T12:28:01.733Z,19.10
2023-01-30T12:30:35.896Z,24.15
2023-01-30T12:33:05.327Z,24.88
2023-01-30T12:35:49.264Z,21.77
2023-01-30T12:38:28.398Z,21.30
2023-01-30T12:41:22.844Z,22.30
2023-01-30T12:43:55.375Z,19.60
2023-01-30T12:46:30.973Z,19.50
2023-01-30T12:49:11.639Z,21.85
2023-01-30T12:52:10.538Z,19.98
2023-01-30T12:54:40.121Z,24.33
2023-01-30T12:57:19.302Z,20.40
2023-01-30T13:02:43.255Z,21.23
2023-01-30T13:05:22.172Z,22.38
2023-01-30T13:08:19.035Z,22.55
2023-01-30T13:11:14.953Z,21.75
2023-01-30T13:13:53.182Z,23.65
2023-01-30T13:16:41.247Z,17.33
2023-01-30T13:19:40.743Z,21.08
2023-01-30T13:22:07.599Z,20.98
2023-01-30T13:24:57.867Z,20.42
2023-01-30T13:27:27.259Z,21.17
2023-01-30T13:29:54.534Z,19.95
2023-01-30T13:32:45.354Z,24.25
2023-01-30T13:35:22.743Z,21.48
2023-01-30T13:37:51.865Z,20.65
2023-01-30T13:40:22.959Z,21.20
2023-01-30T13:42:58.701Z,17.70
2023-01-30T13:45:37.792Z,21.65
2023-01-30T13:48:22.464Z,20.08
2023-01-30T13:50:49.097Z,20.17
2023-01-30T13:53:28.671Z,21.42
2023-01-30T13:56:40.418Z,21.95
2023-01-30T13:59:12.620Z,23.80
2023-01-30T14:02:04.367Z,20.38
2023-01-30T14:04:40.207Z,16.98
2023-01-30T14:07:12.854Z,22.13
2023-01-30T14:09:48.918Z,21.70
2023-01-30T14:12:23.254Z,21.27
2023-01-30T14:15:11.599Z,17.92
2023-01-30T14:17:38.492Z,21.35
2023-01-30T14:20:17.323Z,19.48
2023-01-30T14:22:55.826Z,16.85
2023-01-30T14:25:22.496Z,21.17
2023-01-30T14:27:52.699Z,22.20
2023-01-30T14:30:31.603Z,18.80
2023-01-30T14:33:00.519Z,16.13
2023-01-30T14:35:34.072Z,20.95
2023-01-30T14:38:10.721Z,17.25
2023-01-30T14:40:42.374Z,19.95
2023-01-30T14:43:11.924Z,22.80
2023-01-30T14:45:47.471Z,18.50
2023-01-30T14:48:32.707Z,19.13
2023-01-30T14:51:24.095Z,19.40
2023-01-30T14:54:03.022Z,19.30
2023-01-30T14:56:38.904Z,16.83
2023-01-30T14:59:19.886Z,15.93
2023-01-30T15:02:05.844Z,19.48
2023-01-30T15:04:34.089Z,15.82
2023-01-30T15:07:08.144Z,16.23
2023-01-30T15:09:36.920Z,18.38
2023-01-30T15:12:12.288Z,15.80
2023-01-30T15:14:54.153Z,18.20
2023-01-30T15:17:40.419Z,19.00
2023-01-30T15:20:20.983Z,13.13
2023-01-30T15:23:09.659Z,14.25
2023-01-30T15:26:07.849Z,14.10
2023-01-30T15:28:53.219Z,15.85
2023-01-30T15:33:51.123Z,16.70
2023-01-30T15:36:20.573Z,16.45
2023-01-30T15:39:00.156Z,15.38
2023-01-30T15:44:18.503Z,16.33
2023-01-30T15:49:39.219Z,14.27
2023-01-30T15:52:14.351Z,17.00
2023-01-30T15:54:41.130Z,17.08
2023-01-30T15:57:17.826Z,17.35
2023-01-30T15:59:44.436Z,16.88
2023-01-30T16:02:28.425Z,14.50
2023-01-30T16:05:14.847Z,12.45
2023-01-30T16:07:42.398Z,12.40
2023-01-30T16:10:15.458Z,14.20
2023-01-30T16:12:42.301Z,14.93
2023-01-30T16:15:28.588Z,14.23
2023-01-30T16:18:15.858Z,9.70
2023-01-30T16:24:04.285Z,13.50
2023-01-30T16:29:14.383Z,12.65
2023-01-30T16:31:41.708Z,13.50
2023-01-30T16:34:28.110Z,13.77
2023-01-30T16:36:55.286Z,13.63
2023-01-30T16:39:31.608Z,15.70
2023-01-30T16:41:59.598Z,8.85
2023-01-30T16:44:28.931Z,19.52
2023-01-30T16:47:06.343Z,13.50
2023-01-30T16:49:35.955Z,14.40
2023-01-30T16:52:14.739Z,14.98
2023-01-30T16:54:47.184Z,17.42
2023-01-30T16:57:40.474Z,15.65
2023-01-30T17:00:34.407Z,13.73
2023-01-30T17:03:04.919Z,21.10
2023-01-30T17:05:39.542Z,10.93
2023-01-30T17:08:06.564Z,13.98
2023-01-30T17:10:42.163Z,16.30
2023-01-30T17:13:30.903Z,11.93
2023-01-30T17:16:22.008Z,12.05
2023-01-30T17:18:50.087Z,10.30
2023-01-30T17:21:17.438Z,14.15
2023-01-30T17:23:51.558Z,15.63
2023-01-30T17:28:44.733Z,12.65
2023-01-30T17:31:13.151Z,13.23
2023-01-30T17:33:40.132Z,25.48
2023-01-30T17:36:15.233Z,11.43
2023-01-30T17:38:41.832Z,8.57
2023-01-30T17:41:21.003Z,8.70
2023-01-30T17:43:49.696Z,11.27
2023-01-30T17:46:16.932Z,11.82
2023-01-30T17:48:44.432Z,14.73
2023-01-30T17:51:14.281Z,11.70
2023-01-30T17:53:41.753Z,11.45
2023-01-30T17:56:22.040Z,13.77
2023-01-30T18:01:18.942Z,6.85
2023-01-30T18:03:45.980Z,11.82
2023-01-30T18:06:14.170Z,10.73
2023-01-30T18:08:40.984Z,9.07
2023-01-30T18:11:11.744Z,12.60
2023-01-30T18:13:40.027Z,9.30
2023-01-30T18:16:06.923Z,12.85
2023-01-30T18:18:33.722Z,16.80
2023-01-30T18:21:00.324Z,12.63
2023-01-30T18:23:26.953Z,13.88
2023-01-30T18:25:53.518Z,8.60
2023-01-30T18:28:20.020Z,10.00
2023-01-30T18:30:46.578Z,8.88
2023-01-30T18:33:13.188Z,12.55
2023-01-30T18:35:39.777Z,11.30
2023-01-30T18:38:06.505Z,14.52
2023-01-30T18:40:33.097Z,14.70
2023-01-30T18:42:59.685Z,16.92
2023-01-30T18:45:26.358Z,11.05
2023-01-30T18:47:54.443Z,14.63
2023-01-30T18:52:48.170Z,8.93
2023-01-30T18:55:14.872Z,7.80
2023-01-30T18:57:41.407Z,9.70
2023-01-30T19:00:08.742Z,13.13
2023-01-30T19:02:35.395Z,13.38
2023-01-30T19:05:02.011Z,7.70
2023-01-30T19:07:28.622Z,15.73
2023-01-30T19:09:56.334Z,16.30
2023-01-30T19:12:42.347Z,11.57
2023-01-30T19:15:09.534Z,10.25
2023-01-30T19:17:36.162Z,9.88
2023-01-30T19:20:04.879Z,7.95
2023-01-30T19:22:31.512Z,11.82
2023-01-30T19:24:58.036Z,8.90
2023-01-30T19:27:25.922Z,8.30
2023-01-30T19:29:52.656Z,14.70
2023-01-30T19:32:19.263Z,12.68
2023-01-30T19:34:45.966Z,15.88
2023-01-30T19:37:12.628Z,13.02
2023-01-30T19:39:39.340Z,10.30
2023-01-30T19:42:05.984Z,10.80
2023-01-30T19:44:32.701Z,6.93
2023-01-30T19:46:59.347Z,11.93
2023-01-30T19:49:25.872Z,11.02
2023-01-30T19:51:52.625Z,8.90
2023-01-30T19:54:19.418Z,13.23
2023-01-30T19:56:48.341Z,6.10
2023-01-30T19:59:16.556Z,6.82
2023-01-30T20:01:43.595Z,11.85
2023-01-30T20:04:10.304Z,10.48
2023-01-30T20:06:38.235Z,9.98
2023-01-30T20:09:07.538Z,8.70
2023-01-30T20:11:36.138Z,15.27
2023-01-30T20:14:04.738Z,12.20
2023-01-30T20:16:31.811Z,7.50
2023-01-30T20:19:20.002Z,14.73
2023-01-30T20:21:46.728Z,9.20
2023-01-30T20:24:14.698Z,7.45
2023-01-30T20:26:42.076Z,12.93
2023-01-30T20:29:10.517Z,12.15
2023-01-30T20:31:41.041Z,15.10
2023-01-30T20:34:12.150Z,14.40
2023-01-30T20:36:39.009Z,11.05
2023-01-30T20:39:07.583Z,11.10
2023-01-30T20:41:35.786Z,25.48
2023-01-30T20:44:02.832Z,10.48
2023-01-30T20:46:43.726Z,13.15
2023-01-30T20:49:16.399Z,11.85
2023-01-30T20:51:43.412Z,11.43
2023-01-30T20:54:11.938Z,5.80
2023-01-30T20:56:44.692Z,10.02
2023-01-30T20:59:13.846Z,16.80
2023-01-30T21:01:40.984Z,18.65
2023-01-30T21:04:10.613Z,14.82
2023-01-30T21:06:44.821Z,8.05
2023-01-30T21:09:15.251Z,8.70
2023-01-30T21:11:41.939Z,6.45
2023-01-30T21:14:08.524Z,12.95
2023-01-30T21:16:36.231Z,21.98
2023-01-30T21:19:05.928Z,11.65
2023-01-30T21:21:37.000Z,5.93
2023-01-30T21:24:07.109Z,8.80
2023-01-30T21:26:36.914Z,10.02
2023-01-30T21:29:06.137Z,10.63
2023-01-30T21:31:37.448Z,11.70
2023-01-30T21:34:05.172Z,12.77
2023-01-30T21:36:32.289Z,12.07
2023-01-30T21:39:17.568Z,11.35
2023-01-30T21:42:04.370Z,13.70
2023-01-30T21:44:39.216Z,13.38
2023-01-30T21:47:07.275Z,16.73
2023-01-30T21:49:34.722Z,15.60
2023-01-30T21:52:01.551Z,15.00
2023-01-30T21:54:28.355Z,9.45
2023-01-30T21:56:55.587Z,13.77
2023-01-30T21:59:22.220Z,10.93
2023-01-30T22:01:48.900Z,8.90
2023-01-30T22:04:15.700Z,11.57
2023-01-30T22:06:42.949Z,11.68
2023-01-30T22:09:13.684Z,12.98
2023-01-30T22:11:40.498Z,10.93
2023-01-30T22:14:07.164Z,14.35
2023-01-30T22:16:34.030Z,9.30
2023-01-30T22:19:03.874Z,9.85
2023-01-30T22:21:33.809Z,10.18
2023-01-30T22:24:02.048Z,11.98
2023-01-30T22:26:29.106Z,11.05
2023-01-30T22:29:00.748Z,10.25
2023-01-30T22:31:31.176Z,10.00
2023-01-30T22:33:57.989Z,10.98
2023-01-30T22:36:27.109Z,8.45
2023-01-30T22:38:54.266Z,10.43
2023-01-30T22:41:23.162Z,10.65
2023-01-30T22:43:52.190Z,9.82
2023-01-30T22:46:20.091Z,12.07
2023-01-30T22:48:47.245Z,14.85
2023-01-30T22:51:17.942Z,8.10
2023-01-30T22:53:50.081Z,21.02
2023-01-30T22:56:25.599Z,11.68
2023-01-30T22:58:52.484Z,15.80
2023-01-30T23:01:31.520Z,13.60
2023-01-30T23:04:07.929Z,15.02
2023-01-30T23:06:34.705Z,6.65
2023-01-30T23:09:01.916Z,9.02
2023-01-30T23:11:34.697Z,7.70
2023-01-30T23:14:07.888Z,7.10
2023-01-30T23:16:36.072Z,9.60
2023-01-30T23:19:04.585Z,8.95
2023-01-30T23:21:45.825Z,15.90
2023-01-30T23:24:15.173Z,16.42
2023-01-30T23:26:44.867Z,8.77
2023-01-30T23:29:14.967Z,11.85
2023-01-30T23:31:43.400Z,7.57
2023-01-30T23:34:18.619Z,11.23
2023-01-30T23:36:46.265Z,11.77
2023-01-30T23:39:14.216Z,9.05
2023-01-30T23:41:42.181Z,11.52
2023-01-30T23:44:09.460Z,13.30
2023-01-30T23:46:39.103Z,10.85
2023-01-30T23:49:08.043Z,13.43
2023-01-30T23:51:36.432Z,14.05
2023-01-30T23:54:04.313Z,12.25
2023-01-30T23:56:33.016Z,9.43
2023-01-30T23:58:59.551Z,10.25
